createdAt,value
2019-01-21T00:00:13.780Z,42.30
2019-01-21T00:02:41.187Z,45.40
2019-01-21T00:05:08.588Z,43.93
2019-01-21T00:07:36.026Z,43.77
2019-01-21T00:10:03.425Z,43.80
2019-01-21T00:12:30.865Z,44.80
2019-01-21T00:14:58.565Z,41.57
2019-01-21T00:17:25.980Z,39.23
2019-01-21T00:19:53.403Z,42.73
2019-01-21T00:22:20.804Z,40.67
2019-01-21T00:24:48.236Z,40.03
2019-01-21T00:27:15.640Z,38.70
2019-01-21T00:29:43.064Z,39.63
2019-01-21T00:32:10.482Z,37.13
2019-01-21T00:34:37.884Z,44.00
2019-01-21T00:37:05.310Z,44.53
2019-01-21T00:39:32.713Z,45.67
2019-01-21T00:42:00.126Z,44.77
2019-01-21T00:44:27.522Z,42.07
2019-01-21T00:46:54.963Z,43.13
2019-01-21T00:49:22.373Z,42.30
2019-01-21T00:51:49.773Z,41.40
2019-01-21T00:54:17.195Z,41.70
2019-01-21T00:56:44.739Z,41.97
2019-01-21T00:59:12.049Z,38.13
2019-01-21T01:01:42.436Z,41.90
2019-01-21T01:04:09.860Z,45.87
2019-01-21T01:06:37.280Z,45.97
2019-01-21T01:09:04.682Z,44.83
2019-01-21T01:11:32.340Z,44.13
2019-01-21T01:14:00.913Z,43.77
2019-01-21T01:16:27.037Z,48.27
2019-01-21T01:18:54.442Z,50.37
2019-01-21T01:21:21.865Z,46.30
2019-01-21T01:23:49.260Z,48.87
2019-01-21T01:26:16.692Z,46.83
2019-01-21T01:28:44.111Z,45.17
2019-01-21T01:31:11.515Z,49.03
2019-01-21T01:33:38.956Z,51.87
2019-01-21T01:36:06.352Z,45.67
2019-01-21T01:38:33.847Z,47.80
2019-01-21T01:41:01.252Z,48.10
2019-01-21T01:43:28.694Z,44.67
2019-01-21T01:45:56.107Z,46.30
2019-01-21T01:48:23.546Z,44.87
2019-01-21T01:50:50.977Z,52.13
2019-01-21T01:53:18.381Z,46.03
2019-01-21T01:55:45.808Z,47.47
2019-01-21T01:58:13.213Z,44.87
2019-01-21T02:00:43.573Z,52.57
2019-01-21T02:03:13.712Z,49.73
2019-01-21T02:05:43.994Z,56.23
2019-01-21T02:08:11.355Z,48.30
2019-01-21T02:10:38.788Z,53.13
2019-01-21T02:13:06.220Z,53.57
2019-01-21T02:15:33.620Z,57.87
2019-01-21T02:18:01.016Z,56.90
2019-01-21T02:20:28.449Z,58.17
2019-01-21T02:22:55.878Z,53.47
2019-01-21T02:25:23.289Z,57.37
2019-01-21T02:27:56.579Z,57.13
2019-01-21T02:30:24.000Z,70.37
2019-01-21T02:32:57.051Z,53.53
2019-01-21T02:35:26.007Z,53.60
2019-01-21T02:38:06.656Z,52.87
2019-01-21T02:40:39.586Z,49.73
2019-01-21T02:43:34.205Z,53.33
2019-01-21T02:46:09.015Z,53.70
2019-01-21T02:48:42.127Z,53.87
2019-01-21T02:51:27.762Z,55.50
2019-01-21T02:54:10.176Z,58.13
2019-01-21T02:56:37.598Z,56.03
2019-01-21T02:59:16.576Z,52.47
2019-01-21T03:01:50.079Z,56.17
2019-01-21T03:04:41.965Z,52.67
2019-01-21T03:07:21.577Z,51.83
2019-01-21T03:10:19.395Z,52.17
2019-01-21T03:13:19.775Z,45.27
2019-01-21T03:16:05.774Z,59.37
2019-01-21T03:18:47.301Z,53.73
2019-01-21T03:21:23.389Z,50.43
2019-01-21T03:23:53.777Z,48.80
2019-01-21T03:26:21.190Z,52.77
2019-01-21T03:29:09.479Z,51.77
2019-01-21T03:31:39.813Z,52.77
2019-01-21T03:34:15.506Z,57.33
2019-01-21T03:37:03.865Z,48.90
2019-01-21T03:39:36.713Z,51.43
2019-01-21T03:42:09.980Z,46.40
2019-01-21T03:44:42.755Z,45.07
2019-01-21T03:47:10.496Z,46.70
2019-01-21T03:49:56.321Z,41.57
2019-01-21T03:52:35.950Z,43.67
2019-01-21T03:55:03.362Z,48.60
2019-01-21T03:57:33.780Z,50.43
2019-01-21T04:00:09.394Z,51.13
2019-01-21T04:02:55.310Z,49.60
2019-01-21T04:05:46.464Z,47.03
2019-01-21T04:08:22.431Z,44.13
2019-01-21T04:11:07.690Z,53.80
2019-01-21T04:13:53.305Z,47.50
2019-01-21T04:16:29.222Z,52.40
2019-01-21T04:18:59.264Z,54.97
2019-01-21T04:21:27.506Z,50.07
2019-01-21T04:24:21.861Z,47.73
2019-01-21T04:26:52.019Z,47.03
2019-01-21T04:29:21.840Z,51.63
2019-01-21T04:31:57.852Z,53.27
2019-01-21T04:34:28.133Z,57.07
2019-01-21T04:37:10.382Z,48.90
2019-01-21T04:39:43.570Z,49.20
2019-01-21T04:42:16.933Z,52.57
2019-01-21T04:44:59.202Z,50.07
2019-01-21T04:47:35.679Z,57.00
2019-01-21T04:50:21.616Z,55.03
2019-01-21T04:53:07.526Z,63.83
2019-01-21T04:55:46.616Z,67.60
2019-01-21T04:58:25.691Z,70.87
2019-01-21T05:01:14.346Z,61.13
2019-01-21T05:03:57.030Z,59.90
2019-01-21T05:06:35.918Z,64.33
2019-01-21T05:09:06.118Z,53.97
2019-01-21T05:11:48.125Z,58.43
2019-01-21T05:14:20.916Z,51.10
2019-01-21T05:17:03.224Z,52.77
2019-01-21T05:19:48.686Z,48.70
2019-01-21T05:22:25.277Z,46.47
2019-01-21T05:25:10.515Z,55.10
2019-01-21T05:27:49.637Z,55.53
2019-01-21T05:30:32.124Z,51.97
2019-01-21T05:33:14.422Z,46.73
2019-01-21T05:35:41.852Z,51.90
2019-01-21T05:38:09.250Z,51.00
2019-01-21T05:40:39.554Z,49.27
2019-01-21T05:43:28.430Z,50.70
2019-01-21T05:46:13.585Z,53.93
2019-01-21T05:48:49.785Z,47.80
2019-01-21T05:51:44.272Z,53.80
2019-01-21T05:54:30.005Z,51.50
2019-01-21T05:57:21.557Z,50.93
2019-01-21T05:59:51.751Z,50.47
2019-01-21T06:02:27.625Z,49.80
2019-01-21T06:05:14.071Z,49.50
2019-01-21T06:08:02.309Z,56.60
2019-01-21T06:10:35.322Z,49.63
2019-01-21T06:13:02.757Z,48.80
2019-01-21T06:15:33.157Z,47.13
2019-01-21T06:18:12.056Z,42.67
2019-01-21T06:21:06.889Z,47.77
2019-01-21T06:24:01.296Z,53.97
2019-01-21T06:26:31.295Z,54.37
2019-01-21T06:28:58.701Z,51.20
2019-01-21T06:31:28.562Z,52.30
2019-01-21T06:34:14.150Z,52.20
2019-01-21T06:36:44.433Z,50.03
2019-01-21T06:39:17.655Z,64.93
2019-01-21T06:42:06.422Z,52.47
2019-01-21T06:44:45.548Z,53.53
2019-01-21T06:47:21.694Z,48.33
2019-01-21T06:50:16.668Z,52.23
2019-01-21T06:53:10.758Z,54.20
2019-01-21T06:56:09.070Z,48.87
2019-01-21T06:58:39.009Z,52.07
2019-01-21T07:01:43.559Z,59.73
2019-01-21T07:04:16.721Z,55.03
2019-01-21T07:07:11.023Z,67.53
2019-01-21T07:09:44.495Z,64.20
2019-01-21T07:12:17.626Z,64.17
2019-01-21T07:14:53.883Z,59.87
2019-01-21T07:17:21.311Z,60.03
2019-01-21T07:19:57.471Z,59.07
2019-01-21T07:22:33.755Z,61.87
2019-01-21T07:25:16.099Z,69.37
2019-01-21T07:27:51.682Z,73.50
2019-01-21T07:30:46.160Z,72.63
2019-01-21T07:33:31.720Z,63.07
2019-01-21T07:36:13.886Z,69.00
2019-01-21T07:38:44.135Z,60.30
2019-01-21T07:41:17.411Z,68.93
2019-01-21T07:43:56.794Z,67.00
2019-01-21T07:46:42.367Z,66.50
2019-01-21T07:49:30.787Z,62.63
2019-01-21T07:52:01.000Z,67.70
2019-01-21T07:54:46.833Z,66.30
2019-01-21T07:57:17.063Z,68.70
2019-01-21T08:00:02.047Z,67.73
2019-01-21T08:02:41.234Z,70.27
2019-01-21T08:05:17.569Z,71.87
2019-01-21T08:07:47.917Z,69.13
2019-01-21T08:10:17.923Z,68.70
2019-01-21T08:12:53.906Z,70.57
2019-01-21T08:15:26.305Z,69.03
2019-01-21T08:18:09.749Z,68.50
2019-01-21T08:20:45.893Z,69.37
2019-01-21T08:23:43.705Z,74.53
2019-01-21T08:26:19.575Z,67.43
2019-01-21T08:28:49.758Z,64.70
2019-01-21T08:31:31.954Z,66.80
2019-01-21T08:34:14.260Z,61.13
2019-01-21T08:36:47.082Z,67.67
2019-01-21T08:39:35.500Z,61.23
2019-01-21T08:42:05.567Z,60.87
2019-01-21T08:44:53.699Z,62.90
2019-01-21T08:47:26.788Z,61.57
2019-01-21T08:50:15.139Z,59.73
2019-01-21T08:53:01.965Z,61.73
2019-01-21T08:55:38.407Z,61.73
2019-01-21T08:58:26.638Z,60.43
2019-01-21T09:01:21.393Z,69.30
2019-01-21T09:04:07.216Z,62.07
2019-01-21T09:06:52.882Z,64.07
2019-01-21T09:09:28.911Z,62.27
2019-01-21T09:12:14.739Z,57.90
2019-01-21T09:14:44.988Z,61.40
2019-01-21T09:17:30.363Z,65.27
2019-01-21T09:20:10.806Z,56.07
2019-01-21T09:22:42.651Z,57.10
2019-01-21T09:25:10.057Z,64.17
2019-01-21T09:27:58.585Z,60.30
2019-01-21T09:30:26.019Z,55.77
2019-01-21T09:33:01.769Z,61.77
2019-01-21T09:35:37.879Z,58.77
2019-01-21T09:38:19.837Z,58.60
2019-01-21T09:40:47.235Z,64.37
2019-01-21T09:43:17.481Z,62.53
2019-01-21T09:46:05.527Z,60.03
2019-01-21T09:48:32.448Z,56.43
2019-01-21T09:50:59.878Z,61.37
2019-01-21T09:53:27.302Z,55.03
2019-01-21T09:55:54.785Z,60.67
2019-01-21T09:58:22.195Z,60.67
2019-01-21T10:00:49.636Z,58.03
2019-01-21T10:03:17.043Z,61.60
2019-01-21T10:05:44.486Z,60.33
2019-01-21T10:08:17.148Z,58.47
2019-01-21T10:10:54.484Z,64.87
2019-01-21T10:13:23.381Z,59.00
2019-01-21T10:16:09.192Z,61.37
2019-01-21T10:18:36.589Z,54.03
2019-01-21T10:21:19.127Z,54.00
2019-01-21T10:24:07.652Z,57.13
2019-01-21T10:26:49.977Z,53.40
2019-01-21T10:29:20.309Z,54.77
2019-01-21T10:32:24.595Z,58.73
2019-01-21T10:35:01.181Z,53.93
2019-01-21T10:37:28.645Z,57.83
2019-01-21T10:40:14.717Z,51.50
2019-01-21T10:45:44.019Z,51.80
2019-01-21T10:48:23.119Z,52.30
2019-01-21T10:50:59.042Z,51.27
2019-01-21T10:53:42.483Z,51.47
2019-01-21T10:56:15.864Z,52.40
2019-01-21T10:58:45.836Z,55.00
2019-01-21T11:01:24.793Z,57.20
2019-01-21T11:04:28.842Z,51.50
2019-01-21T11:06:56.300Z,49.67
2019-01-21T11:09:26.787Z,48.27
2019-01-21T11:12:03.205Z,50.17
2019-01-21T11:14:33.059Z,51.13
2019-01-21T11:17:06.742Z,51.03
2019-01-21T11:19:55.670Z,48.60
2019-01-21T11:22:23.099Z,43.67
2019-01-21T11:24:50.515Z,40.53
2019-01-21T11:27:26.386Z,38.77
2019-01-21T11:29:53.807Z,40.17
2019-01-21T11:32:32.908Z,41.77
2019-01-21T11:35:12.293Z,41.50
2019-01-21T11:37:59.108Z,35.73
2019-01-21T11:40:46.115Z,37.00
2019-01-21T11:43:18.634Z,38.93
2019-01-21T11:45:54.536Z,39.83
2019-01-21T11:48:27.469Z,38.10
2019-01-21T11:51:03.283Z,41.60
2019-01-21T11:53:35.977Z,38.67
2019-01-21T11:56:09.438Z,45.97
2019-01-21T11:58:36.854Z,41.63
2019-01-21T12:01:04.289Z,40.60
2019-01-21T12:03:49.425Z,38.57
2019-01-21T12:06:16.837Z,45.63
2019-01-21T12:08:55.772Z,38.57
2019-01-21T12:11:44.715Z,40.17
2019-01-21T12:14:27.127Z,37.00
2019-01-21T12:17:13.192Z,40.57
2019-01-21T12:19:58.784Z,37.30
2019-01-21T12:22:46.996Z,36.90
2019-01-21T12:25:14.401Z,35.47
2019-01-21T12:27:56.688Z,48.70
2019-01-21T12:30:26.832Z,42.10
2019-01-21T12:32:57.107Z,36.97
2019-01-21T12:36:01.453Z,38.70
2019-01-21T12:38:40.714Z,36.87
2019-01-21T12:41:21.628Z,37.93
2019-01-21T12:43:47.076Z,36.67
2019-01-21T12:46:23.790Z,41.10
2019-01-21T12:48:59.859Z,71.90
2019-01-21T12:51:51.458Z,36.17
2019-01-21T12:54:27.207Z,35.57
2019-01-21T12:57:03.248Z,36.00
2019-01-21T12:59:39.533Z,34.90
2019-01-21T13:02:12.427Z,32.17
2019-01-21T13:04:45.708Z,38.40
2019-01-21T13:07:15.644Z,34.27
2019-01-21T13:10:10.472Z,34.63
2019-01-21T13:12:58.026Z,52.70
2019-01-21T13:15:31.127Z,37.23
2019-01-21T13:18:04.554Z,30.87
2019-01-21T13:20:31.949Z,55.70
2019-01-21T13:23:10.886Z,39.90
2019-01-21T13:25:38.283Z,29.67
2019-01-21T13:28:14.408Z,32.37
2019-01-21T13:31:02.429Z,29.83
2019-01-21T13:34:00.035Z,30.87
2019-01-21T13:36:29.866Z,33.67
2019-01-21T13:39:08.933Z,34.10
2019-01-21T13:41:36.356Z,31.70
2019-01-21T13:44:30.885Z,35.97
2019-01-21T13:46:58.335Z,28.27
2019-01-21T13:49:26.128Z,30.10
2019-01-21T13:52:15.136Z,28.33
2019-01-21T13:54:51.326Z,33.53
2019-01-21T13:57:33.406Z,32.27
2019-01-21T14:00:06.967Z,32.80
2019-01-21T14:02:37.222Z,31.93
2019-01-21T14:05:13.456Z,33.73
2019-01-21T14:07:49.818Z,38.53
2019-01-21T14:10:22.679Z,34.30
2019-01-21T14:13:14.438Z,42.00
2019-01-21T14:15:48.027Z,36.00
2019-01-21T14:18:26.953Z,35.47
2019-01-21T14:20:54.359Z,29.53
2019-01-21T14:23:30.164Z,33.17
2019-01-21T14:26:28.508Z,35.53
2019-01-21T14:28:59.067Z,38.73
2019-01-21T14:31:44.396Z,47.13
2019-01-21T14:34:29.346Z,41.10
2019-01-21T14:37:11.742Z,38.37
2019-01-21T14:39:39.168Z,39.60
2019-01-21T14:42:15.093Z,37.97
2019-01-21T14:44:52.926Z,46.33
2019-01-21T14:47:21.275Z,35.80
2019-01-21T14:49:51.623Z,45.60
2019-01-21T14:52:28.000Z,35.87
2019-01-21T14:54:58.195Z,40.10
2019-01-21T14:57:43.124Z,36.37
2019-01-21T15:00:16.593Z,37.50
2019-01-21T15:02:46.434Z,33.40
2019-01-21T15:05:19.726Z,27.87
2019-01-21T15:07:47.076Z,27.00
2019-01-21T15:10:29.222Z,35.83
2019-01-21T15:12:59.763Z,29.27
2019-01-21T15:15:35.601Z,31.77
2019-01-21T15:18:33.316Z,29.20
2019-01-21T15:21:12.928Z,32.53
2019-01-21T15:23:45.993Z,28.03
2019-01-21T15:26:19.308Z,34.03
2019-01-21T15:28:52.269Z,30.23
2019-01-21T15:31:37.900Z,31.90
2019-01-21T15:34:14.135Z,30.93
2019-01-21T15:37:02.589Z,34.13
2019-01-21T15:39:51.052Z,44.03
2019-01-21T15:42:23.986Z,46.60
2019-01-21T15:44:57.146Z,47.93
2019-01-21T15:47:36.358Z,49.50
2019-01-21T15:50:06.632Z,51.03
2019-01-21T15:52:36.834Z,43.20
2019-01-21T15:55:19.276Z,42.50
2019-01-21T15:58:05.107Z,38.50
2019-01-21T16:01:05.476Z,41.87
2019-01-21T16:03:47.782Z,46.50
2019-01-21T16:06:21.159Z,50.43
2019-01-21T16:09:02.002Z,53.73
2019-01-21T16:11:27.219Z,46.80
2019-01-21T16:13:54.647Z,47.80
2019-01-21T16:16:24.888Z,46.60
2019-01-21T16:19:01.239Z,52.40
2019-01-21T16:21:46.929Z,52.53
2019-01-21T16:24:29.303Z,55.87
2019-01-21T16:27:02.754Z,49.23
2019-01-21T16:29:33.143Z,52.57
2019-01-21T16:32:00.562Z,54.63
2019-01-21T16:34:42.905Z,52.70
2019-01-21T16:37:21.906Z,50.10
2019-01-21T16:40:10.594Z,52.57
2019-01-21T16:42:38.222Z,53.33
2019-01-21T16:45:05.667Z,55.20
2019-01-21T16:47:33.081Z,54.77
2019-01-21T16:50:00.601Z,60.07
2019-01-21T16:52:28.009Z,52.73
2019-01-21T16:54:55.458Z,53.10
2019-01-21T16:57:22.902Z,59.10
2019-01-21T16:59:50.423Z,52.77
2019-01-21T17:02:17.836Z,48.70
2019-01-21T17:04:45.297Z,55.13
2019-01-21T17:07:12.737Z,50.20
2019-01-21T17:09:40.576Z,49.70
2019-01-21T17:12:08.016Z,47.63
2019-01-21T17:14:35.429Z,52.73
2019-01-21T17:17:02.865Z,55.87
2019-01-21T17:19:30.627Z,55.03
2019-01-21T17:21:58.075Z,54.87
2019-01-21T17:24:25.503Z,52.93
2019-01-21T17:26:52.949Z,52.47
2019-01-21T17:29:20.353Z,53.53
2019-01-21T17:31:47.782Z,49.60
2019-01-21T17:34:15.259Z,53.83
2019-01-21T17:36:42.685Z,57.43
2019-01-21T17:39:10.094Z,55.37
2019-01-21T17:41:37.542Z,57.10
2019-01-21T17:44:04.972Z,57.17
2019-01-21T17:46:32.408Z,56.63
2019-01-21T17:48:59.832Z,55.27
2019-01-21T17:51:33.494Z,58.40
2019-01-21T17:53:54.673Z,58.03
2019-01-21T17:56:22.129Z,54.57
2019-01-21T17:58:49.582Z,52.40
2019-01-21T18:01:16.993Z,54.00
2019-01-21T18:03:44.423Z,52.63
2019-01-21T18:06:11.831Z,57.77
2019-01-21T18:08:39.265Z,57.83
2019-01-21T18:11:06.677Z,50.10
2019-01-21T18:13:34.108Z,55.97
2019-01-21T18:16:01.533Z,54.77
2019-01-21T18:18:28.969Z,50.33
2019-01-21T18:20:56.398Z,53.53
2019-01-21T18:23:23.814Z,51.93
2019-01-21T18:25:51.296Z,48.23
2019-01-21T18:28:18.701Z,51.43
2019-01-21T18:30:46.153Z,51.37
2019-01-21T18:33:13.558Z,51.10
2019-01-21T18:35:40.988Z,53.13
2019-01-21T18:38:08.449Z,52.50
2019-01-21T18:40:35.860Z,48.90
2019-01-21T18:43:03.288Z,55.40
2019-01-21T18:45:30.711Z,61.53
2019-01-21T18:48:00.721Z,55.60
2019-01-21T18:50:28.129Z,53.73
2019-01-21T18:52:55.563Z,54.50
2019-01-21T18:55:23.002Z,56.80
2019-01-21T18:57:55.894Z,60.73
2019-01-21T19:00:23.363Z,51.50
2019-01-21T19:02:50.808Z,58.07
2019-01-21T19:05:18.242Z,59.83
2019-01-21T19:07:45.675Z,59.17
2019-01-21T19:10:13.085Z,55.87
2019-01-21T19:12:40.519Z,52.43
2019-01-21T19:15:07.927Z,55.00
2019-01-21T19:17:35.369Z,61.63
2019-01-21T19:20:02.806Z,63.03
2019-01-21T19:22:30.247Z,57.80
2019-01-21T19:24:57.682Z,52.10
2019-01-21T19:27:25.108Z,51.20
2019-01-21T19:29:52.579Z,57.63
2019-01-21T19:32:20.007Z,56.33
2019-01-21T19:34:47.429Z,54.07
2019-01-21T19:37:14.867Z,56.63
2019-01-21T19:39:42.302Z,58.97
2019-01-21T19:42:09.711Z,57.80
2019-01-21T19:44:37.156Z,61.23
2019-01-21T19:47:04.564Z,57.80
2019-01-21T19:49:31.992Z,56.70
2019-01-21T19:52:00.477Z,60.40
2019-01-21T19:54:26.860Z,59.43
2019-01-21T19:56:54.293Z,58.50
2019-01-21T19:59:21.701Z,63.77
2019-01-21T20:01:49.184Z,54.93
2019-01-21T20:04:16.622Z,61.17
2019-01-21T20:06:44.039Z,59.20
2019-01-21T20:09:11.498Z,59.70
2019-01-21T20:11:38.915Z,54.33
2019-01-21T20:14:06.336Z,58.03
2019-01-21T20:16:33.989Z,60.27
2019-01-21T20:19:01.424Z,59.10
2019-01-21T20:21:28.852Z,58.33
2019-01-21T20:23:56.350Z,54.80
2019-01-21T20:26:23.782Z,56.97
2019-01-21T20:28:51.191Z,60.33
2019-01-21T20:31:18.622Z,65.10
2019-01-21T20:33:52.014Z,61.17
2019-01-21T20:36:13.474Z,58.83
2019-01-21T20:38:40.876Z,62.33
2019-01-21T20:41:08.347Z,61.13
2019-01-21T20:43:35.768Z,62.87
2019-01-21T20:46:03.197Z,65.83
2019-01-21T20:48:30.648Z,65.83
2019-01-21T20:50:58.118Z,64.07
2019-01-21T20:53:25.518Z,67.50
2019-01-21T20:55:52.940Z,59.13
2019-01-21T20:58:20.345Z,65.50
2019-01-21T21:00:47.772Z,61.27
2019-01-21T21:03:15.209Z,64.17
2019-01-21T21:05:42.613Z,69.60
2019-01-21T21:08:10.070Z,69.40
2019-01-21T21:10:37.480Z,67.97
2019-01-21T21:13:04.923Z,69.90
2019-01-21T21:15:32.331Z,67.40
2019-01-21T21:17:59.748Z,69.73
2019-01-21T21:20:27.191Z,68.50
2019-01-21T21:22:54.590Z,66.47
2019-01-21T21:25:22.085Z,68.17
2019-01-21T21:27:49.500Z,75.63
2019-01-21T21:30:25.521Z,72.70
2019-01-21T21:32:52.935Z,68.43
2019-01-21T21:35:20.381Z,61.47
2019-01-21T21:37:47.787Z,71.47
2019-01-21T21:40:15.198Z,76.67
2019-01-21T21:42:42.638Z,75.23
2019-01-21T21:45:10.039Z,68.87
2019-01-21T21:47:37.446Z,77.97
2019-01-21T21:50:04.872Z,72.50
2019-01-21T21:52:32.268Z,75.10
2019-01-21T21:54:59.701Z,70.67
2019-01-21T21:57:27.128Z,73.10
2019-01-21T21:59:54.529Z,74.20
2019-01-21T22:02:21.958Z,71.40
2019-01-21T22:04:49.413Z,74.40
2019-01-21T22:07:16.842Z,66.90
2019-01-21T22:09:44.247Z,71.53
2019-01-21T22:12:11.694Z,67.93
2019-01-21T22:14:39.129Z,69.57
2019-01-21T22:17:06.540Z,70.97
2019-01-21T22:19:33.953Z,71.27
2019-01-21T22:22:01.367Z,73.73
2019-01-21T22:24:28.799Z,73.37
2019-01-21T22:26:57.103Z,79.00
2019-01-21T22:29:24.502Z,82.60
2019-01-21T22:31:51.911Z,80.97
2019-01-21T22:34:19.346Z,76.87
2019-01-21T22:36:46.754Z,75.97
2019-01-21T22:39:14.195Z,85.97
2019-01-21T22:41:41.620Z,70.47
2019-01-21T22:44:09.025Z,70.50
2019-01-21T22:46:36.418Z,70.80
2019-01-21T22:49:03.830Z,74.50
2019-01-21T22:51:31.261Z,73.60
2019-01-21T22:53:58.687Z,72.73
2019-01-21T22:56:26.114Z,72.15
2019-01-21T22:58:53.668Z,68.50
2019-01-21T23:01:20.970Z,71.43
2019-01-21T23:03:48.411Z,63.80
2019-01-21T23:06:15.857Z,64.83
2019-01-21T23:08:43.265Z,69.50
2019-01-21T23:11:10.699Z,65.47
2019-01-21T23:13:38.126Z,61.67
2019-01-21T23:16:05.579Z,59.83
2019-01-21T23:18:33.027Z,73.73
2019-01-21T23:21:00.440Z,66.67
2019-01-21T23:23:27.870Z,62.27
2019-01-21T23:25:55.292Z,68.67
2019-01-21T23:28:22.715Z,68.80
2019-01-21T23:30:50.143Z,67.63
2019-01-21T23:33:17.548Z,68.97
2019-01-21T23:35:44.993Z,65.93
2019-01-21T23:38:12.392Z,64.73
2019-01-21T23:40:39.798Z,65.57
2019-01-21T23:43:07.230Z,71.03
2019-01-21T23:45:34.677Z,63.03
2019-01-21T23:48:02.082Z,63.10
2019-01-21T23:50:29.617Z,64.40
2019-01-21T23:52:57.052Z,64.00
2019-01-21T23:55:24.473Z,63.07
2019-01-21T23:57:51.913Z,62.67
